sensor_id;sensor_type;location;lat;lon;timestamp;temperature;humidity
20457;DHT22;10387;51.102;6.848;2022-08-21T16:38:28;27.00;99.90
20457;DHT22;10387;51.102;6.848;2022-08-21T16:40:54;27.00;99.90
20457;DHT22;10387;51.102;6.848;2022-08-21T16:43:27;26.70;99.90
20457;DHT22;10387;51.102;6.848;2022-08-21T16:45:54;26.40;99.90
20457;DHT22;10387;51.102;6.848;2022-08-21T16:48:21;26.10;99.90
20457;DHT22;10387;51.102;6.848;2022-08-21T16:50:47;26.50;99.90
20457;DHT22;10387;51.102;6.848;2022-08-21T16:53:14;26.10;99.90
20457;DHT22;10387;51.102;6.848;2022-08-21T16:55:40;26.30;99.90
20457;DHT22;10387;51.102;6.848;2022-08-21T16:58:12;26.60;99.90
20457;DHT22;10387;51.102;6.848;2022-08-21T17:00:41;26.50;99.90
20457;DHT22;10387;51.102;6.848;2022-08-21T17:03:13;26.60;99.90
20457;DHT22;10387;51.102;6.848;2022-08-21T17:05:40;26.70;99.90
20457;DHT22;10387;51.102;6.848;2022-08-21T17:08:06;27.00;99.90
20457;DHT22;10387;51.102;6.848;2022-08-21T17:10:34;26.80;99.90
20457;DHT22;10387;51.102;6.848;2022-08-21T17:13:01;26.90;99.90
20457;DHT22;10387;51.102;6.848;2022-08-21T17:15:33;26.60;99.90
20457;DHT22;10387;51.102;6.848;2022-08-21T17:17:59;27.00;99.90
20457;DHT22;10387;51.102;6.848;2022-08-21T17:20:25;26.70;99.90
20457;DHT22;10387;51.102;6.848;2022-08-21T17:22:52;27.40;99.90
20457;DHT22;10387;51.102;6.848;2022-08-21T17:25:17;27.60;99.90
20457;DHT22;10387;51.102;6.848;2022-08-21T17:27:47;27.10;99.90
20457;DHT22;10387;51.102;6.848;2022-08-21T17:30:15;27.30;99.90
20457;DHT22;10387;51.102;6.848;2022-08-21T17:32:42;26.60;99.90
20457;DHT22;10387;51.102;6.848;2022-08-21T17:35:10;26.30;99.90
20457;DHT22;10387;51.102;6.848;2022-08-21T17:37:36;26.10;99.90
20457;DHT22;10387;51.102;6.848;2022-08-21T17:40:05;25.80;99.90
20457;DHT22;10387;51.102;6.848;2022-08-21T17:42:31;25.50;99.90
20457;DHT22;10387;51.102;6.848;2022-08-21T17:44:58;25.10;99.90
20457;DHT22;10387;51.102;6.848;2022-08-21T17:47:24;24.80;99.90
20457;DHT22;10387;51.102;6.848;2022-08-21T17:49:50;24.70;99.90
20457;DHT22;10387;51.102;6.848;2022-08-21T17:52:16;24.20;99.90
20457;DHT22;10387;51.102;6.848;2022-08-21T17:54:42;24.20;99.90
20457;DHT22;10387;51.102;6.848;2022-08-21T17:57:17;24.20;99.90
20457;DHT22;10387;51.102;6.848;2022-08-21T17:59:43;24.10;99.90
20457;DHT22;10387;51.102;6.848;2022-08-21T18:02:09;23.50;99.90
20457;DHT22;10387;51.102;6.848;2022-08-21T18:04:35;23.40;99.90
20457;DHT22;10387;51.102;6.848;2022-08-21T18:07:01;23.70;99.90
20457;DHT22;10387;51.102;6.848;2022-08-21T18:09:27;23.60;99.90
20457;DHT22;10387;51.102;6.848;2022-08-21T18:11:58;23.10;99.90
20457;DHT22;10387;51.102;6.848;2022-08-21T18:14:30;23.00;99.90
20457;DHT22;10387;51.102;6.848;2022-08-21T18:16:58;22.90;99.90
20457;DHT22;10387;51.102;6.848;2022-08-21T18:19:24;23.20;99.90
20457;DHT22;10387;51.102;6.848;2022-08-21T18:21:52;22.80;99.90
20457;DHT22;10387;51.102;6.848;2022-08-21T18:24:19;22.90;99.90
20457;DHT22;10387;51.102;6.848;2022-08-21T18:26:46;22.60;99.90
20457;DHT22;10387;51.102;6.848;2022-08-21T18:29:16;22.70;99.90
20457;DHT22;10387;51.102;6.848;2022-08-21T18:31:43;22.60;99.90
20457;DHT22;10387;51.102;6.848;2022-08-21T18:36:49;22.30;99.90
20457;DHT22;10387;51.102;6.848;2022-08-21T18:39:15;22.10;99.90
20457;DHT22;10387;51.102;6.848;2022-08-21T18:41:42;22.20;99.90
20457;DHT22;10387;51.102;6.848;2022-08-21T18:44:09;22.00;99.90
20457;DHT22;10387;51.102;6.848;2022-08-21T18:46:35;22.30;99.90
20457;DHT22;10387;51.102;6.848;2022-08-21T18:49:00;22.10;99.90
20457;DHT22;10387;51.102;6.848;2022-08-21T18:51:26;21.80;99.90
20457;DHT22;10387;51.102;6.848;2022-08-21T18:53:52;21.70;99.90
20457;DHT22;10387;51.102;6.848;2022-08-21T18:56:19;21.70;99.90
20457;DHT22;10387;51.102;6.848;2022-08-21T18:58:45;21.70;99.90
20457;DHT22;10387;51.102;6.848;2022-08-21T19:01:12;21.90;99.90
20457;DHT22;10387;51.102;6.848;2022-08-21T19:03:38;21.70;99.90
20457;DHT22;10387;51.102;6.848;2022-08-21T19:06:04;21.50;99.90
20457;DHT22;10387;51.102;6.848;2022-08-21T19:08:30;21.40;99.90
20457;DHT22;10387;51.102;6.848;2022-08-21T19:10:56;21.40;99.90
20457;DHT22;10387;51.102;6.848;2022-08-21T19:13:23;21.40;99.90
20457;DHT22;10387;51.102;6.848;2022-08-21T19:15:51;21.50;99.90
20457;DHT22;10387;51.102;6.848;2022-08-21T19:18:18;21.50;99.90
20457;DHT22;10387;51.102;6.848;2022-08-21T19:20:45;21.20;99.90
20457;DHT22;10387;51.102;6.848;2022-08-21T19:23:13;21.40;99.90
20457;DHT22;10387;51.102;6.848;2022-08-21T19:25:44;21.40;99.90
20457;DHT22;10387;51.102;6.848;2022-08-21T19:28:12;21.30;99.90
20457;DHT22;10387;51.102;6.848;2022-08-21T19:30:42;20.90;99.90
20457;DHT22;10387;51.102;6.848;2022-08-21T19:33:11;20.80;99.90
20457;DHT22;10387;51.102;6.848;2022-08-21T19:35:38;20.70;99.90
20457;DHT22;10387;51.102;6.848;2022-08-21T19:38:04;20.80;99.90
20457;DHT22;10387;51.102;6.848;2022-08-21T19:40:29;20.80;99.90
20457;DHT22;10387;51.102;6.848;2022-08-21T19:42:55;21.10;99.90
20457;DHT22;10387;51.102;6.848;2022-08-21T19:45:21;20.70;99.90
20457;DHT22;10387;51.102;6.848;2022-08-21T19:47:48;20.70;99.90
20457;DHT22;10387;51.102;6.848;2022-08-21T19:50:16;20.80;99.90
20457;DHT22;10387;51.102;6.848;2022-08-21T19:52:42;20.80;99.90
20457;DHT22;10387;51.102;6.848;2022-08-21T19:55:08;20.90;99.90
20457;DHT22;10387;51.102;6.848;2022-08-21T19:57:38;21.00;99.90
20457;DHT22;10387;51.102;6.848;2022-08-21T20:00:06;20.60;99.90
20457;DHT22;10387;51.102;6.848;2022-08-21T20:02:34;20.70;99.90
20457;DHT22;10387;51.102;6.848;2022-08-21T20:05:00;20.60;99.90
20457;DHT22;10387;51.102;6.848;2022-08-21T20:07:26;20.50;99.90
20457;DHT22;10387;51.102;6.848;2022-08-21T20:09:52;20.50;99.90
20457;DHT22;10387;51.102;6.848;2022-08-21T20:12:18;20.80;99.90
20457;DHT22;10387;51.102;6.848;2022-08-21T20:14:47;20.40;99.90
20457;DHT22;10387;51.102;6.848;2022-08-21T20:17:16;20.60;99.90
20457;DHT22;10387;51.102;6.848;2022-08-21T20:19:44;20.30;99.90
20457;DHT22;10387;51.102;6.848;2022-08-21T20:22:11;20.40;99.90
20457;DHT22;10387;51.102;6.848;2022-08-21T20:24:38;20.40;99.90
20457;DHT22;10387;51.102;6.848;2022-08-21T20:27:07;20.40;99.90
20457;DHT22;10387;51.102;6.848;2022-08-21T20:29:35;20.80;99.90
20457;DHT22;10387;51.102;6.848;2022-08-21T20:32:02;20.50;99.90
20457;DHT22;10387;51.102;6.848;2022-08-21T20:34:30;20.50;99.90
20457;DHT22;10387;51.102;6.848;2022-08-21T20:36:56;20.50;99.90
20457;DHT22;10387;51.102;6.848;2022-08-21T20:39:22;20.80;99.90
20457;DHT22;10387;51.102;6.848;2022-08-21T20:41:49;20.90;99.90
20457;DHT22;10387;51.102;6.848;2022-08-21T20:44:15;20.50;99.90
20457;DHT22;10387;51.102;6.848;2022-08-21T20:46:42;20.70;99.90
20457;DHT22;10387;51.102;6.848;2022-08-21T20:49:11;20.60;99.90
20457;DHT22;10387;51.102;6.848;2022-08-21T20:51:48;20.60;99.90
20457;DHT22;10387;51.102;6.848;2022-08-21T20:54:39;20.80;99.90
20457;DHT22;10387;51.102;6.848;2022-08-21T20:57:08;20.60;99.90
20457;DHT22;10387;51.102;6.848;2022-08-21T21:00:05;20.50;99.90
20457;DHT22;10387;51.102;6.848;2022-08-21T21:13:38;20.20;99.90
20457;DHT22;10387;51.102;6.848;2022-08-21T21:16:14;20.20;99.90
20457;DHT22;10387;51.102;6.848;2022-08-21T21:18:50;20.30;99.90
20457;DHT22;10387;51.102;6.848;2022-08-21T21:26:41;20.30;99.90
20457;DHT22;10387;51.102;6.848;2022-08-21T21:29:24;20.20;99.90
20457;DHT22;10387;51.102;6.848;2022-08-21T21:31:52;20.50;99.90
20457;DHT22;10387;51.102;6.848;2022-08-21T21:34:19;20.50;99.90
20457;DHT22;10387;51.102;6.848;2022-08-21T21:36:55;20.10;99.90
20457;DHT22;10387;51.102;6.848;2022-08-21T21:39:29;20.20;99.90
20457;DHT22;10387;51.102;6.848;2022-08-21T21:47:22;20.00;99.90
20457;DHT22;10387;51.102;6.848;2022-08-21T21:52:57;20.20;99.90
20457;DHT22;10387;51.102;6.848;2022-08-21T22:01:15;20.30;99.90
20457;DHT22;10387;51.102;6.848;2022-08-21T22:03:57;20.10;99.90
20457;DHT22;10387;51.102;6.848;2022-08-21T22:09:17;20.00;99.90
20457;DHT22;10387;51.102;6.848;2022-08-21T22:12:12;20.00;99.90
20457;DHT22;10387;51.102;6.848;2022-08-21T22:14:43;20.20;99.90
20457;DHT22;10387;51.102;6.848;2022-08-21T22:19:45;20.20;99.90
20457;DHT22;10387;51.102;6.848;2022-08-21T22:22:18;19.80;99.90
20457;DHT22;10387;51.102;6.848;2022-08-21T22:24:49;20.10;99.90
20457;DHT22;10387;51.102;6.848;2022-08-21T22:27:24;19.80;99.90
20457;DHT22;10387;51.102;6.848;2022-08-21T22:29:55;20.10;99.90
20457;DHT22;10387;51.102;6.848;2022-08-21T22:35:20;19.80;99.90
20457;DHT22;10387;51.102;6.848;2022-08-21T22:37:53;20.00;99.90
20457;DHT22;10387;51.102;6.848;2022-08-21T22:40:29;20.20;99.90
20457;DHT22;10387;51.102;6.848;2022-08-21T22:43:01;19.70;99.90
20457;DHT22;10387;51.102;6.848;2022-08-21T22:45:29;19.70;99.90
20457;DHT22;10387;51.102;6.848;2022-08-21T22:48:04;20.00;99.90
20457;DHT22;10387;51.102;6.848;2022-08-21T22:50:33;19.80;99.90
20457;DHT22;10387;51.102;6.848;2022-08-21T22:53:06;19.70;99.90
20457;DHT22;10387;51.102;6.848;2022-08-21T22:55:34;19.60;99.90
20457;DHT22;10387;51.102;6.848;2022-08-21T22:58:19;19.60;99.90
20457;DHT22;10387;51.102;6.848;2022-08-21T23:00:54;19.90;99.90
20457;DHT22;10387;51.102;6.848;2022-08-21T23:06:34;19.40;99.90
20457;DHT22;10387;51.102;6.848;2022-08-21T23:09:00;19.50;99.90
20457;DHT22;10387;51.102;6.848;2022-08-21T23:11:40;19.50;99.90
20457;DHT22;10387;51.102;6.848;2022-08-21T23:14:07;19.50;99.90
20457;DHT22;10387;51.102;6.848;2022-08-21T23:16:58;19.60;99.90
20457;DHT22;10387;51.102;6.848;2022-08-21T23:27:56;19.70;99.90
20457;DHT22;10387;51.102;6.848;2022-08-21T23:31:23;19.70;99.90
20457;DHT22;10387;51.102;6.848;2022-08-21T23:34:05;19.30;99.90
20457;DHT22;10387;51.102;6.848;2022-08-21T23:42:16;19.60;99.90
20457;DHT22;10387;51.102;6.848;2022-08-21T23:45:25;19.20;99.90
20457;DHT22;10387;51.102;6.848;2022-08-21T23:48:09;19.30;99.90
20457;DHT22;10387;51.102;6.848;2022-08-21T23:50:51;19.40;99.90
20457;DHT22;10387;51.102;6.848;2022-08-21T23:56:49;19.20;99.90
